• Join FlightAware (Why Join?)
  • Login
  • US Flag 
08:03PM EDT


 

Airport Tracker/Info


-or-


 

Live Flight TrackerFlight Track Log ✈ N53NW ✈ 04-Aug-2014 ✈ KTCL - KBMI

Flight Track Log - Related Links

Times and Time Zones

All times are in EDT time to prevent confusion due to time zone crossing. See the N53NW flight status page for this flight to view local times or setup timezone preferences in your user account.

Time Position Orientation Groundspeed Altitude Reporting Facility
EDT Latitude Longitude Course Direction KTS MPH feet Rate Location/Type
09:36AM 33.2294 -87.5975 352° North 172 198 1,300  Level Atlanta Center
09:36AM 33.2425 -87.5781 51° Northeast 182 209 2,500 2,700 Climbing Atlanta Center
09:37AM 33.2900 -87.5975 341° North 218 251 4,900 1,260 Climbing Atlanta Center
09:38AM 33.3294 -87.6711 303° West 279 321 5,000 1,020 Climbing Atlanta Center
09:39AM 33.3711 -87.7425 305° West 274 315 7,000 2,160 Climbing Atlanta Center
09:40AM 33.4178 -87.8200 306° West 276 318 9,600 2,400 Climbing Memphis Center
09:41AM 33.8103 -87.7086 352° North  Level Estimated
09:41AM 33.4558 -87.8853 305° West 289 333 11,500  Level Memphis Center
09:41AM 33.4633 -87.9008 300° West 283 326 12,100 2,640 Climbing Memphis Center
09:42AM 33.5042 -87.9722 304° West 293 337 14,200 2,400 Climbing Memphis Center
09:42AM 33.5086 -87.9806 303° West 287 330 14,600 2,400 Climbing Memphis Center
09:43AM 33.5378 -88.0617 293° West 285 328 16,900 2,400 Climbing Memphis Center
09:43AM 33.5394 -88.0681 287° West 296 341 17,100 2,400 Climbing Memphis Center
09:44AM 33.5275 -88.1539 261° West 276 318 19,400 2,700 Climbing Memphis Center
09:44AM 33.5250 -88.1772 263° West 282 325 19,900 2,280 Climbing Memphis Center
09:45AM 33.5150 -88.2672 262° West 271 312 22,300 1,800 Climbing Memphis Center
09:46AM 33.5444 -88.3392 296° West 304 350 23,700 1,320 Climbing Memphis Center
09:47AM 33.6292 -88.3467 356° North 306 352 25,100 1,320 Climbing Memphis Center
09:48AM 33.7169 -88.3483 359° North 308 354 26,500 1,320 Climbing Memphis Center
09:49AM 33.8092 -88.3514 358° North 320 368 27,900 1,500 Climbing Memphis Center
09:50AM 33.9214 -88.3536 359° North 331 381 29,600 1,500 Climbing Memphis Center
09:51AM 34.0164 -88.3567 358° North 336 387 31,000 1,320 Climbing Memphis Center
09:52AM 34.1128 -88.3581 359° North 343 395 32,400 1,320 Climbing Memphis Center
09:53AM 34.2106 -88.3611 359° North 343 395 33,800 1,380 Climbing Memphis Center
09:54AM 34.3083 -88.3639 359° North 347 399 35,300 1,320 Climbing Memphis Center
09:56AM 34.4061 -88.3667 359° North 347 399 36,600 1,140 Climbing Memphis Center
09:57AM 34.5053 -88.3678 359° North 348 400 37,700 1,080 Climbing Memphis Center
09:58AM 34.6253 -88.3719 358° North 352 405 38,900 960 Climbing Memphis Center
09:59AM 34.7256 -88.3728 360° North 356 410 39,700 720 Climbing Memphis Center
10:00AM 34.8278 -88.3756 359° North 360 414 40,500 660 Climbing Memphis Center
10:01AM 34.9297 -88.3781 359° North 361 415 41,100 540 Climbing Memphis Center
10:02AM 35.0339 -88.3806 359° North 368 423 41,700 540 Climbing Memphis Center
10:03AM 35.1383 -88.3833 359° North 370 426 42,300 600 Climbing Memphis Center
10:04AM 35.2622 -88.3864 359° North 370 426 43,000 300 Climbing Memphis Center
10:05AM 35.3650 -88.3881 359° North 370 426 43,000  Level Memphis Center
10:06AM 35.4714 -88.3908 359° North 370 426 43,000  Level Memphis Center
10:07AM 35.5725 -88.3933 359° North 369 425 43,000  Level Memphis Center
10:08AM 35.6731 -88.3958 359° North 366 421 43,000  Level Memphis Center
10:09AM 35.7728 -88.4000 358° North 362 417 43,000  Level Memphis Center
10:10AM 35.8753 -88.4017 359° North 363 418 43,000  Level Memphis Center
10:11AM 35.9961 -88.4053 359° North 363 418 43,000  Level Memphis Center
10:12AM 36.0964 -88.4072 359° North 363 418 43,000  Level Memphis Center
10:13AM 36.1969 -88.4111 358° North 363 418 43,000  Level Memphis Center
10:14AM 36.2969 -88.4125 359° North 363 418 43,000  Level Memphis Center
10:15AM 36.3969 -88.4150 359° North 362 417 43,000  Level Memphis Center
10:16AM 36.5197 -88.4186 359° North 363 418 43,000  Level Memphis Center
10:17AM 36.6217 -88.4206 359° North 364 419 43,000  Level Memphis Center
10:18AM 36.7242 -88.4239 359° North 365 420 43,000  Level Memphis Center
10:19AM 36.8275 -88.4267 359° North 367 422 43,000  Level Memphis Center
10:20AM 36.9311 -88.4297 359° North 369 425 43,000  Level Memphis Center
10:21AM 37.0353 -88.4322 359° North 370 426 43,000  Level Memphis Center
10:22AM 37.1597 -88.4364 358° North 371 427 43,000  Level Memphis Center
10:23AM 37.2644 -88.4392 359° North 372 428 43,000 -540 Level Memphis Center
10:24AM 37.3692 -88.4406 359° North 373 429 41,900 -1,260 Descending Memphis Center
10:25AM 37.4711 -88.4439 359° North 373 429 40,400 -1,440 Descending Memphis Center
10:27AM 37.5708 -88.4461 359° North 363 418 39,000 -1,380 Descending Memphis Center
10:28AM 37.6647 -88.4481 359° North 344 396 37,600 -1,500 Descending Memphis Center
10:29AM 37.7739 -88.4519 358° North 331 381 36,000 -1,440 Descending Memphis Center
10:29AM 37.8122 -88.4542 357° North 330 380 35,400 -720 Descending Kansas City Center
10:30AM 37.9014 -88.4556 359° North 323 372 35,000 -360 Descending Kansas City Center
10:31AM 37.9886 -88.4578 359° North 316 364 34,700 -720 Descending Kansas City Center
10:32AM 38.0806 -88.4614 358° North 320 368 33,500 -1,740 Descending Kansas City Center
10:33AM 38.1789 -88.4622 360° North 332 382 31,200 -1,920 Descending Kansas City Center
10:34AM 38.2847 -88.4653 359° North 349 402 29,700 -1,560 Descending Kansas City Center
10:35AM 38.4167 -88.4686 359° North 374 430 28,000 -1,560 Descending Kansas City Center
10:36AM 38.5239 -88.4703 359° North 380 437 26,500 -1,440 Descending Kansas City Center
10:37AM 38.6272 -88.4733 359° North 378 435 25,100 -1,380 Descending Kansas City Center
10:38AM 38.7272 -88.4753 359° North 367 422 23,700 -1,380 Descending Kansas City Center
10:39AM 38.8219 -88.4778 359° North 350 403 22,300 -1,380 Descending Kansas City Center
10:40AM 38.9167 -88.4825 358° North 342 394 20,900 -1,380 Descending Kansas City Center
10:41AM 39.0097 -88.5056 349° North 342 394 19,500 -1,320 Descending Kansas City Center
10:43AM 39.0986 -88.5303 348° North 332 382 18,200 -1,260 Descending Kansas City Center
10:44AM 39.2092 -88.5589 349° North 332 382 17,000 -1,260 Descending Kansas City Center
10:45AM 39.2994 -88.5839 348° North 332 382 15,700 -1,200 Descending Kansas City Center
10:46AM 39.3767 -88.6044 348° North 326 375 14,600 -1,200 Descending Kansas City Center
10:47AM 39.4711 -88.6314 348° North 318 366 13,300 -1,260 Descending Kansas City Center
10:48AM 39.5558 -88.6550 348° North 314 361 12,100 -1,200 Descending Kansas City Center
10:49AM 39.6381 -88.6772 348° North 308 354 10,900 -1,020 Descending Kansas City Center
10:50AM 39.7367 -88.7056 348° North 306 352 10,000 -480 Descending Kansas City Center
10:51AM 39.8128 -88.7264 348° North 288 331 10,000  Level Kansas City Center
10:52AM 39.8847 -88.7469 348° North 274 315 10,000  Level Kansas City Center
10:53AM 39.9569 -88.7675 348° North 268 308 10,000 -120 Level Kansas City Center
10:54AM 40.0278 -88.7875 348° North 266 306 9,800 -840 Descending Kansas City Center
10:55AM 40.1011 -88.8078 348° North 266 306 8,300 -1,560 Descending Kansas City Center
10:56AM 40.2022 -88.8367 348° North 265 305 6,300 -1,680 Descending Chicago Center
10:57AM 40.2728 -88.8567 348° North 265 305 4,500 -1,140 Descending Chicago Center
10:58AM 40.3381 -88.8592 358° North 246 283 4,000 -600 Descending Chicago Center
10:59AM 40.4017 -88.8597 360° North 230 265 3,300 -720 Descending Chicago Center
11:00AM 40.4542 -88.8606 359° North 203 234 2,600 -600 Descending Chicago Center
11:01AM 40.5072 -88.8328 22° Northeast 176 203 2,100 -420 Descending Chicago Center
11:02AM 40.5242 -88.8767 297° West 154 177 1,800 -420 Descending Chicago Center
11:03AM 40.4917 -88.9017 210° Southwest 138 159 1,300 -540 Descending Chicago Center
11:05AM 40.4667 -88.9000 242° Southwest  Level FlightAware Approximate